MMLP/LAP METAR and TAF weather

Enter ICAO airport designator
Station Type Date Time Source
MMLP METAR 2020/07/10 22:41 UTC NOAA

MMLP 102241Z 30011KT 10SM SCT040TCU SCT120 32/22 A2987 RMK 8/260 PCPN E


Station Type Date Time Source
MMLP Decoded METAR 2020/07/10 22:41 UTC NOAA

La Paz International Airport, Mexico (MMLP) 24-04N 110-22W
Jul 10, 2020 - 06:41 PM EDT / 2020.07.10 2241 UTC
Wind: from the WNW (300 degrees) at 13 MPH (11 KT):0
Visibility: 10 mile(s):0
Sky conditions: partly cloudy
Weather: Towering cumulus clouds observed
Temperature: 89 F (32 C)
Heat index: 95.0 F (35.0 C):1
Dew Point: 71 F (22 C)
Relative Humidity: 55%
Pressure (altimeter): 29.87 in. Hg (1011 hPa)
ob: MMLP 102241Z 30011KT 10SM SCT040TCU SCT120 32/22 A2987 RMK 8/260 PCPN E
cycle: 22

Station Type Date Time Source
MMLP TAF 2020/07/10 18:51 UTC NOAA

TAF MMLP 101643Z 1018/1118 16012KT P6SM SCT120 BKN200
FM110600 20012KT P6SM SCT100 BKN200

Example: see airport list